Time;durP1;ratioP1;P1;durP2;ratioP2;P2;SDS_P1;SDS_P2;PMS_P1;PMS_P2;Temp;Humidity;BMP_temperature;BMP_pressure;BME280_temperature;BME280_humidity;BME280_pressure;Samples;Min_cycle;Max_cycle;Signal;HPM_P1;HPM_P2
2023/01/10 00:00:00;;;;;;;7.33;3.33;;;;;;;5.21;100.00;100382.59;685283;28;1244;-64
2023/01/10 00:00:25;;;;;;;7.90;3.20;;;;;;;5.22;100.00;100380.00;685872;28;1293;-63
2023/01/10 00:00:46;;;;;;;8.50;3.50;;;;;;;5.23;100.00;100386.03;684055;28;4361;-64
2023/01/10 00:01:07;;;;;;;8.63;3.30;;;;;;;5.24;100.00;100383.47;685050;28;1272;-64
2023/01/10 00:01:27;;;;;;;10.85;3.40;;;;;;;5.24;100.00;100390.38;685863;28;1426;-64
2023/01/10 00:01:47;;;;;;;9.17;3.27;;;;;;;5.23;100.00;100392.13;686484;28;1005;-63
2023/01/10 00:02:08;;;;;;;9.00;3.42;;;;;;;5.22;100.00;100390.38;688186;28;1512;-63
2023/01/10 00:02:28;;;;;;;8.23;3.50;;;;;;;5.23;100.00;100386.03;688517;28;1183;-64
2023/01/10 00:02:49;;;;;;;7.90;3.30;;;;;;;5.22;100.00;100392.97;687982;28;1131;-65
2023/01/10 00:03:11;;;;;;;7.63;3.38;;;;;;;5.23;100.00;100396.41;688188;28;1420;-64
2023/01/10 00:03:31;;;;;;;8.02;3.50;;;;;;;5.21;100.00;100391.22;688642;28;1171;-65
2023/01/10 00:03:51;;;;;;;7.90;3.60;;;;;;;5.21;100.00;100395.53;687078;28;4419;-64
2023/01/10 00:04:12;;;;;;;9.52;3.55;;;;;;;5.24;100.00;100395.56;686546;28;1262;-63
2023/01/10 00:04:32;;;;;;;9.88;3.30;;;;;;;5.24;100.00;100395.56;686144;28;1305;-64
2023/01/10 00:04:53;;;;;;;7.70;3.30;;;;;;;5.23;100.00;100401.59;682088;28;1110;-63
2023/01/10 00:05:13;;;;;;;8.60;3.20;;;;;;;5.22;100.00;100398.16;684367;28;1260;-64
2023/01/10 00:05:35;;;;;;;7.10;3.40;;;;;;;5.24;100.00;100396.44;681299;28;2181;-63
2023/01/10 00:05:55;;;;;;;7.28;3.35;;;;;;;5.24;100.00;100400.75;684497;28;1971;-64
2023/01/10 00:06:16;;;;;;;8.23;3.23;;;;;;;5.21;100.00;100393.81;683609;28;1391;-64
2023/01/10 00:06:36;;;;;;;8.57;3.20;;;;;;;5.22;100.00;100399.84;685429;28;1242;-64
2023/01/10 00:06:57;;;;;;;6.77;3.07;;;;;;;5.37;100.00;100401.78;687962;28;4427;-63
2023/01/10 00:07:17;;;;;;;8.65;3.45;;;;;;;5.36;100.00;100403.50;688400;28;1272;-65
2023/01/10 00:07:37;;;;;;;10.93;3.57;;;;;;;5.35;100.00;100395.72;688385;28;1182;-64
2023/01/10 00:07:58;;;;;;;8.93;3.20;;;;;;;5.33;100.00;100402.59;688305;28;1308;-64
2023/01/10 00:08:18;;;;;;;7.37;3.23;;;;;;;5.30;100.00;100398.22;688732;28;1235;-64
2023/01/10 00:08:38;;;;;;;7.47;3.10;;;;;;;5.29;100.00;100401.69;689463;28;1292;-64
2023/01/10 00:08:59;;;;;;;8.27;3.30;;;;;;;5.28;100.00;100406.00;687820;28;2574;-65
2023/01/10 00:09:19;;;;;;;7.25;3.30;;;;;;;5.29;100.00;100406.88;687694;28;1151;-63
2023/01/10 00:09:40;;;;;;;9.17;3.60;;;;;;;5.28;100.00;100405.13;686732;28;4958;-64
2023/01/10 00:10:00;;;;;;;9.73;3.20;;;;;;;5.26;100.00;100409.41;685335;28;1373;-63
2023/01/10 00:10:21;;;;;;;9.85;3.33;;;;;;;5.32;100.00;100412.09;685629;28;1294;-64
2023/01/10 00:10:41;;;;;;;9.57;3.08;;;;;;;5.31;100.00;100399.13;685108;28;1270;-64
2023/01/10 00:13:22;;;;;;;9.00;3.40;;;;;;;5.31;100.00;100414.66;685521;28;1167;-64
2023/01/10 00:13:39;;;;;;;9.48;3.20;;;;;;;5.42;100.00;100419.13;687235;28;1646;-64
2023/01/10 00:14:00;;;;;;;8.55;3.30;;;;;;;5.38;100.00;100417.34;687657;28;1591;-64
2023/01/10 00:14:20;;;;;;;9.00;3.30;;;;;;;5.36;100.00;100412.97;687205;28;1271;-64
2023/01/10 00:14:41;;;;;;;9.45;3.50;;;;;;;5.33;100.00;100415.53;687641;28;1377;-64
2023/01/10 00:15:01;;;;;;;8.80;3.77;;;;;;;5.28;100.00;100415.50;684248;28;1440;-64
2023/01/10 00:15:21;;;;;;;8.83;3.57;;;;;;;5.26;100.00;100419.78;685498;28;1176;-64
2023/01/10 00:15:42;;;;;;;6.78;3.42;;;;;;;5.25;100.00;100416.31;685700;28;4669;-64
2023/01/10 00:16:07;;;;;;;7.10;3.30;;;;;;;5.20;100.00;100414.53;685169;28;1353;-63
2023/01/10 00:16:28;;;;;;;10.13;3.80;;;;;;;5.18;100.00;100417.09;685267;28;1407;-64
2023/01/10 00:16:48;;;;;;;8.80;3.85;;;;;;;5.17;100.00;100412.75;685155;28;1571;-64
2023/01/10 00:17:09;;;;;;;8.33;3.63;;;;;;;5.24;100.00;100416.31;684057;28;1252;-65
2023/01/10 00:17:29;;;;;;;9.20;3.75;;;;;;;5.27;100.00;100419.81;685225;28;1101;-64
2023/01/10 00:17:49;;;;;;;8.80;3.70;;;;;;;5.25;100.00;100416.31;685961;28;1545;-64
2023/01/10 00:18:10;;;;;;;10.30;3.50;;;;;;;5.29;100.00;100425.03;684372;28;1459;-64
2023/01/10 00:18:30;;;;;;;9.35;3.80;;;;;;;5.34;100.00;100420.75;686390;28;1617;-64
2023/01/10 00:18:51;;;;;;;10.03;3.80;;;;;;;5.33;100.00;100426.81;684491;28;4285;-64
2023/01/10 00:19:11;;;;;;;9.73;4.00;;;;;;;5.31;100.00;100425.91;684935;28;1236;-64
2023/01/10 00:19:31;;;;;;;9.53;3.77;;;;;;;5.29;100.00;100427.63;684449;28;1235;-64
2023/01/10 00:19:52;;;;;;;9.00;3.72;;;;;;;5.28;100.00;100429.31;682965;28;1181;-65
2023/01/10 00:20:13;;;;;;;7.70;3.50;;;;;;;5.38;100.00;100427.72;681971;28;3714;-64
2023/01/10 00:20:33;;;;;;;8.35;3.60;;;;;;;5.51;100.00;100428.75;683763;28;1338;-64
2023/01/10 00:20:53;;;;;;;8.65;3.53;;;;;;;5.49;100.00;100439.94;683406;28;1247;-64
2023/01/10 00:21:14;;;;;;;8.80;3.70;;;;;;;5.42;100.00;100434.69;683992;28;1248;-64
2023/01/10 00:21:36;;;;;;;8.98;3.50;;;;;;;5.39;100.00;100433.78;687119;28;1257;-65
2023/01/10 00:21:57;;;;;;;7.45;3.45;;;;;;;5.36;100.00;100439.78;686324;28;4333;-64
2023/01/10 00:22:23;;;;;;;8.18;3.50;;;;;;;5.48;100.00;100443.38;685641;28;1401;-64
2023/01/10 00:22:44;;;;;;;9.23;3.58;;;;;;;5.43;100.00;100440.75;687033;28;1228;-64
2023/01/10 00:23:05;;;;;;;9.73;3.60;;;;;;;5.44;100.00;100442.47;684903;28;1438;-64
2023/01/10 00:23:25;;;;;;;7.13;3.40;;;;;;;5.39;100.00;100444.16;685597;28;1302;-63
2023/01/10 00:23:47;;;;;;;9.32;3.45;;;;;;;5.35;100.00;100448.41;685691;28;1472;-64
2023/01/10 00:24:19;;;;;;;9.25;3.38;;;;;;;5.34;100.00;100444.06;686288;28;1896;-65
2023/01/10 00:24:40;;;;;;;6.45;3.00;;;;;;;5.32;100.00;100450.97;686885;28;4481;-64
2023/01/10 00:25:00;;;;;;;7.80;3.20;;;;;;;5.30;100.00;100444.88;686181;28;1232;-64
2023/01/10 00:25:21;;;;;;;7.50;3.10;;;;;;;5.30;100.00;100447.47;687451;28;1223;-64
2023/01/10 00:25:41;;;;;;;7.83;3.27;;;;;;;5.29;100.00;100448.34;685999;28;1357;-63
2023/01/10 00:26:01;;;;;;;8.07;3.70;;;;;;;5.28;100.00;100451.78;680954;28;2084;-64
2023/01/10 00:26:22;;;;;;;9.27;3.53;;;;;;;5.26;100.00;100449.19;683545;28;1311;-64
2023/01/10 00:26:45;;;;;;;8.50;3.27;;;;;;;5.26;100.00;100453.47;683034;28;1668;-63
2023/01/10 00:27:05;;;;;;;8.07;3.20;;;;;;;5.31;100.00;100457.00;683189;28;1696;-64
2023/01/10 00:27:26;;;;;;;7.82;3.13;;;;;;;5.35;100.00;100456.19;683622;28;1252;-64
2023/01/10 00:28:20;;;;;;;8.60;3.00;;;;;;;5.34;100.00;100451.84;685454;28;5281;-64
2023/01/10 00:28:34;;;;;;;8.88;3.28;;;;;;;5.53;100.00;100457.28;685151;28;1388;-63
2023/01/10 00:28:54;;;;;;;9.68;3.13;;;;;;;5.50;100.00;100460.72;689548;28;1136;-64
2023/01/10 00:29:26;;;;;;;9.43;3.03;;;;;;;5.50;100.00;100455.53;689541;28;1241;-64
2023/01/10 00:29:50;;;;;;;9.57;3.20;;;;;;;5.46;100.00;100462.38;690036;28;1297;-65
2023/01/10 00:30:13;;;;;;;7.68;2.97;;;;;;;5.44;100.00;100463.22;689331;28;1219;-63
2023/01/10 00:30:34;;;;;;;8.95;3.17;;;;;;;5.41;100.00;100458.88;688944;28;1251;-64
2023/01/10 00:30:57;;;;;;;9.03;3.00;;;;;;;5.54;100.00;100471.97;688205;28;4407;-64
2023/01/10 00:31:18;;;;;;;10.82;3.13;;;;;;;5.46;100.00;100466.72;686756;28;1031;-64
2023/01/10 00:31:38;;;;;;;10.00;3.10;;;;;;;5.41;100.00;100465.78;688887;28;1118;-64
2023/01/10 00:31:59;;;;;;;6.93;3.20;;;;;;;5.38;100.00;100463.16;688376;28;1273;-65
2023/01/10 00:32:20;;;;;;;7.27;3.10;;;;;;;5.33;100.00;100460.50;685882;28;1270;-64
2023/01/10 00:32:42;;;;;;;6.93;2.95;;;;;;;5.38;100.00;100470.91;685740;28;1243;-64
2023/01/10 00:33:03;;;;;;;9.38;3.00;;;;;;;5.36;100.00;100468.31;685812;28;1432;-66
2023/01/10 00:33:24;;;;;;;16.98;4.50;;;;;;;5.39;100.00;100465.75;685486;28;1286;-64
2023/01/10 00:33:45;;;;;;;8.88;3.35;;;;;;;5.37;100.00;100472.66;686296;28;4530;-64
2023/01/10 00:34:06;;;;;;;6.97;3.37;;;;;;;5.36;100.00;100470.91;687633;28;1580;-64
2023/01/10 00:34:27;;;;;;;10.05;3.33;;;;;;;5.32;100.00;100466.53;688947;28;1097;-65
2023/01/10 00:34:47;;;;;;;9.43;3.20;;;;;;;5.36;100.00;100468.31;687766;28;1312;-65
2023/01/10 00:35:08;;;;;;;7.53;3.00;;;;;;;5.36;100.00;100476.09;687869;28;1366;-64
2023/01/10 00:35:29;;;;;;;8.27;3.03;;;;;;;5.36;100.00;100478.69;687652;28;1017;-64
2023/01/10 00:35:49;;;;;;;9.18;3.10;;;;;;;5.45;100.00;100476.22;688074;28;1289;-63
2023/01/10 00:36:10;;;;;;;8.40;3.00;;;;;;;5.46;100.00;100479.66;689063;28;1158;-64
2023/01/10 00:36:30;;;;;;;7.60;3.00;;;;;;;5.39;100.00;100478.72;689296;28;1236;-64
2023/01/10 00:36:50;;;;;;;6.83;2.97;;;;;;;5.38;100.00;100473.50;688449;28;4505;-64
2023/01/10 00:37:11;;;;;;;9.52;3.47;;;;;;;5.36;100.00;100477.78;687219;28;1348;-64
2023/01/10 00:37:31;;;;;;;8.50;3.37;;;;;;;5.37;100.00;100477.84;688002;28;1104;-63
2023/01/10 00:37:56;;;;;;;9.18;3.30;;;;;;;5.36;100.00;100482.97;686179;28;1306;-63
2023/01/10 00:38:17;;;;;;;10.38;3.30;;;;;;;5.37;100.00;100479.53;685432;28;1271;-63
2023/01/10 00:38:37;;;;;;;8.63;3.10;;;;;;;5.48;100.00;100482.28;684737;28;1132;-63
2023/01/10 00:38:57;;;;;;;8.25;3.30;;;;;;;5.49;100.00;100484.88;684125;28;5173;-64
2023/01/10 00:39:19;;;;;;;7.80;3.33;;;;;;;5.48;100.00;100482.28;685340;28;1172;-63
2023/01/10 00:39:40;;;;;;;8.65;3.13;;;;;;;5.43;100.00;100488.28;685025;28;4580;-63
2023/01/10 00:40:00;;;;;;;12.57;3.50;;;;;;;5.41;100.00;100483.91;684744;28;1161;-63
2023/01/10 00:40:20;;;;;;;9.30;3.13;;;;;;;5.36;100.00;100486.47;688676;28;1108;-64
2023/01/10 00:40:41;;;;;;;9.83;3.20;;;;;;;5.34;100.00;100484.69;685585;28;1330;-63
2023/01/10 00:41:02;;;;;;;9.10;3.20;;;;;;;5.38;100.00;100484.75;684952;28;1040;-64
2023/01/10 00:43:58;;;;;;;8.38;2.92;;;;;;;5.41;100.00;100505.56;686695;28;1300;-64
2023/01/10 00:44:18;;;;;;;9.02;3.50;;;;;;;5.38;100.00;100489.94;688447;28;1280;-64
2023/01/10 00:44:39;;;;;;;7.77;3.47;;;;;;;5.31;100.00;100495.88;688851;28;1252;-65
2023/01/10 00:44:59;;;;;;;8.90;3.30;;;;;;;5.29;100.00;100510.56;688001;28;1513;-65
2023/01/10 00:45:21;;;;;;;7.83;3.00;;;;;;;5.25;100.00;100496.66;687940;28;1098;-65
2023/01/10 00:45:44;;;;;;;8.73;3.30;;;;;;;5.23;100.00;100498.38;688516;28;4769;-64
2023/01/10 00:46:04;;;;;;;8.18;3.30;;;;;;;5.22;100.00;100500.94;687707;28;1445;-64
2023/01/10 00:46:26;;;;;;;9.87;3.37;;;;;;;5.21;100.00;100504.38;687599;28;1342;-64
2023/01/10 00:46:46;;;;;;;10.45;3.20;;;;;;;5.21;100.00;100509.56;686952;28;1399;-63
2023/01/10 00:47:07;;;;;;;8.40;3.20;;;;;;;5.21;100.00;100506.97;686633;28;1140;-63
2023/01/10 00:47:27;;;;;;;8.13;3.10;;;;;;;5.22;100.00;100509.59;688437;28;1081;-64
2023/01/10 00:47:47;;;;;;;8.87;3.47;;;;;;;5.25;100.00;100503.59;687994;28;1468;-63
2023/01/10 00:48:08;;;;;;;9.93;3.38;;;;;;;5.24;100.00;100513.06;686680;28;1399;-64
2023/01/10 00:48:28;;;;;;;9.00;3.00;;;;;;;5.23;100.00;100510.44;685264;28;1353;-63
2023/01/10 00:48:50;;;;;;;8.10;3.20;;;;;;;5.22;100.00;100516.47;681360;29;4408;-63
2023/01/10 00:49:14;;;;;;;9.00;3.30;;;;;;;5.21;100.00;100509.56;681076;29;1137;-63
2023/01/10 00:49:34;;;;;;;8.32;3.00;;;;;;;5.22;100.00;100508.69;682182;29;1258;-63
2023/01/10 00:49:54;;;;;;;9.63;3.30;;;;;;;5.33;100.00;100511.44;682379;29;1127;-63
2023/01/10 00:50:15;;;;;;;9.03;3.20;;;;;;;5.36;100.00;100512.38;682621;28;1231;-63
2023/01/10 00:50:36;;;;;;;6.70;2.60;;;;;;;5.35;100.00;100513.22;684366;28;1271;-63
2023/01/10 00:50:56;;;;;;;8.63;2.90;;;;;;;5.34;100.00;100511.47;682496;28;1105;-62
2023/01/10 00:51:16;;;;;;;9.47;3.00;;;;;;;5.30;100.00;100517.47;682656;28;1356;-62
2023/01/10 00:51:37;;;;;;;9.33;2.97;;;;;;;5.31;100.00;100516.63;681895;28;1093;-63
2023/01/10 00:51:58;;;;;;;8.30;2.92;;;;;;;5.35;100.00;100512.38;684169;28;4354;-64
2023/01/10 00:52:18;;;;;;;8.82;3.00;;;;;;;5.36;100.00;100512.38;684213;28;1284;-63
2023/01/10 00:52:39;;;;;;;8.80;3.13;;;;;;;5.46;100.00;100511.66;686923;28;1168;-62
2023/01/10 00:52:59;;;;;;;11.27;3.20;;;;;;;5.40;100.00;100511.56;687178;28;1129;-62
2023/01/10 00:53:20;;;;;;;8.80;3.40;;;;;;;5.35;100.00;100518.41;688354;28;1084;-64
2023/01/10 00:53:41;;;;;;;9.02;3.08;;;;;;;5.36;100.00;100514.97;687649;28;1061;-64
2023/01/10 00:54:01;;;;;;;8.97;2.90;;;;;;;5.43;100.00;100511.59;687107;28;1442;-63
2023/01/10 00:54:21;;;;;;;8.80;2.90;;;;;;;5.37;100.00;100514.13;688424;28;1610;-64
2023/01/10 00:54:42;;;;;;;7.43;3.30;;;;;;;5.38;100.00;100508.06;686533;28;4323;-63
2023/01/10 00:55:02;;;;;;;7.03;3.23;;;;;;;5.47;100.00;100515.13;684529;28;1339;-63
2023/01/10 00:55:23;;;;;;;6.68;2.80;;;;;;;5.43;100.00;100514.19;685492;28;1419;-63
2023/01/10 00:55:43;;;;;;;8.07;2.80;;;;;;;5.41;100.00;100520.22;685251;28;1521;-63
2023/01/10 00:56:04;;;;;;;11.00;3.13;;;;;;;5.36;100.00;100520.16;684836;28;1448;-64
2023/01/10 00:56:24;;;;;;;10.52;3.05;;;;;;;5.34;100.00;100524.44;685208;28;1451;-63
2023/01/10 00:56:45;;;;;;;8.03;2.90;;;;;;;5.34;100.00;100524.44;688238;28;1195;-63
2023/01/10 00:57:05;;;;;;;8.05;2.85;;;;;;;5.32;100.00;100520.06;686850;28;1037;-63
2023/01/10 00:57:26;;;;;;;8.47;2.97;;;;;;;5.28;100.00;100525.22;689275;28;1561;-63
2023/01/10 00:57:46;;;;;;;7.90;2.88;;;;;;;5.27;100.00;100523.50;686576;28;4559;-63
2023/01/10 00:58:10;;;;;;;8.27;2.90;;;;;;;5.28;100.00;100526.94;687646;28;1470;-63
2023/01/10 00:58:32;;;;;;;8.63;2.92;;;;;;;5.25;100.00;100524.31;689002;28;1251;-63
2023/01/10 00:58:53;;;;;;;7.47;2.72;;;;;;;5.26;100.00;100521.75;687573;28;1263;-63
2023/01/10 00:59:13;;;;;;;7.67;3.07;;;;;;;5.25;100.00;100524.31;688116;28;1085;-64
2023/01/10 00:59:33;;;;;;;8.93;2.80;;;;;;;5.28;100.00;100529.53;687656;28;1268;-63
2023/01/10 00:59:54;;;;;;;8.37;2.67;;;;;;;5.29;100.00;100524.38;688250;28;1330;-64
2023/01/10 01:00:15;;;;;;;8.97;2.77;;;;;;;5.41;100.00;100526.28;687538;28;1166;-63
2023/01/10 01:00:35;;;;;;;7.53;3.10;;;;;;;5.41;100.00;100528.88;688702;28;1332;-64
2023/01/10 01:00:56;;;;;;;7.95;3.00;;;;;;;5.39;100.00;100532.28;687380;28;4336;-64
2023/01/10 01:01:16;;;;;;;7.80;2.83;;;;;;;5.36;100.00;100527.03;688258;28;1178;-63
2023/01/10 01:01:36;;;;;;;7.55;2.58;;;;;;;5.35;100.00;100526.19;688314;28;1277;-63
2023/01/10 01:01:57;;;;;;;8.07;2.57;;;;;;;5.32;100.00;100525.25;687544;28;988;-63
2023/01/10 01:02:17;;;;;;;8.43;2.80;;;;;;;5.30;100.00;100527.81;688029;28;1231;-64
2023/01/10 01:02:37;;;;;;;8.40;3.00;;;;;;;5.31;100.00;100529.59;687545;28;1104;-63
2023/01/10 01:02:58;;;;;;;7.97;2.87;;;;;;;5.34;100.00;100532.22;687437;28;1523;-63
2023/01/10 01:03:21;;;;;;;8.68;2.90;;;;;;;5.34;100.00;100532.22;687838;28;1235;-62
2023/01/10 01:03:42;;;;;;;7.85;2.72;;;;;;;5.32;100.00;100526.16;687424;28;4352;-63
2023/01/10 01:04:02;;;;;;;8.57;2.87;;;;;;;5.35;100.00;100536.56;687684;28;1381;-63
2023/01/10 01:04:23;;;;;;;9.52;3.00;;;;;;;5.28;100.00;100534.72;688027;28;1352;-63
2023/01/10 01:04:43;;;;;;;10.60;3.00;;;;;;;5.28;100.00;100534.72;688141;28;1187;-64
2023/01/10 01:05:04;;;;;;;10.50;2.77;;;;;;;5.25;100.00;100540.72;687959;28;1206;-63
2023/01/10 01:05:26;;;;;;;9.23;3.00;;;;;;;5.25;100.00;100534.69;687713;28;1359;-63
2023/01/10 01:05:47;;;;;;;8.88;3.10;;;;;;;5.23;100.00;100538.97;688061;28;1963;-63
2023/01/10 01:06:08;;;;;;;8.48;2.85;;;;;;;5.22;100.00;100537.22;687851;28;1418;-63
2023/01/10 01:06:28;;;;;;;7.43;2.77;;;;;;;5.22;100.00;100539.81;688888;28;1219;-63
2023/01/10 01:06:49;;;;;;;8.20;2.67;;;;;;;5.21;100.00;100532.91;687355;28;4555;-63
2023/01/10 01:07:10;;;;;;;8.38;2.80;;;;;;;5.25;100.00;100547.66;688472;28;1583;-63
2023/01/10 01:07:30;;;;;;;8.87;2.63;;;;;;;5.39;100.00;100542.66;687836;28;1135;-63
2023/01/10 01:07:51;;;;;;;8.15;2.65;;;;;;;5.33;100.00;100535.69;688429;28;1198;-63
2023/01/10 01:08:13;;;;;;;8.52;2.90;;;;;;;5.38;100.00;100538.31;689242;28;1324;-63
2023/01/10 01:08:34;;;;;;;8.00;2.88;;;;;;;5.48;100.00;100539.31;687774;28;1229;-64
2023/01/10 01:08:54;;;;;;;7.32;2.70;;;;;;;5.50;100.00;100538.50;688088;28;1064;-62
2023/01/10 01:09:15;;;;;;;7.73;2.67;;;;;;;5.50;100.00;100541.09;687392;28;1091;-63
2023/01/10 01:10:25;;;;;;;10.13;2.67;;;;;;;5.53;100.00;100535.94;685765;28;1424;-63
2023/01/10 01:10:26;;;;;;;8.70;3.08;;;;;;;5.46;100.00;100545.34;687313;28;5028;-63
2023/01/10 01:10:46;;;;;;;9.85;2.90;;;;;;;5.35;100.00;100546.06;684979;28;1375;-63
2023/01/10 01:11:07;;;;;;;8.02;2.63;;;;;;;5.31;100.00;100542.53;686610;28;1450;-62
2023/01/10 01:11:27;;;;;;;10.40;2.70;;;;;;;5.34;100.00;100541.72;684548;28;1331;-62
2023/01/10 01:11:48;;;;;;;9.30;2.60;;;;;;;5.31;100.00;100546.88;684543;28;1524;-63
2023/01/10 01:12:08;;;;;;;9.97;2.87;;;;;;;5.37;100.00;100547.84;682993;28;1486;-64
2023/01/10 01:12:29;;;;;;;10.17;3.00;;;;;;;5.49;100.00;100543.66;684850;28;1488;-64
2023/01/10 01:12:49;;;;;;;11.47;3.00;;;;;;;5.46;100.00;100550.53;687653;28;4470;-63
2023/01/10 01:13:16;;;;;;;8.40;2.55;;;;;;;5.42;100.00;100553.94;683793;28;1116;-64
2023/01/10 01:13:37;;;;;;;8.48;2.55;;;;;;;5.41;100.00;100551.31;684708;28;1073;-62
2023/01/10 01:13:57;;;;;;;6.70;2.30;;;;;;;5.50;100.00;100553.16;684829;28;1554;-62
2023/01/10 01:14:18;;;;;;;7.17;2.30;;;;;;;5.58;100.00;100548.97;686056;28;1224;-62
2023/01/10 01:14:38;;;;;;;8.73;2.50;;;;;;;5.46;100.00;100557.47;682806;28;1240;-63
2023/01/10 01:14:58;;;;;;;9.03;2.40;;;;;;;5.41;100.00;100553.91;685276;28;1381;-63
2023/01/10 01:15:22;;;;;;;9.50;2.80;;;;;;;5.38;100.00;100553.88;688185;28;1160;-63
2023/01/10 01:15:43;;;;;;;8.60;2.50;;;;;;;5.36;100.00;100559.03;687292;28;4458;-63
2023/01/10 01:16:04;;;;;;;8.18;2.50;;;;;;;5.41;100.00;100546.13;686921;28;1394;-62
2023/01/10 01:16:24;;;;;;;8.35;2.83;;;;;;;5.52;100.00;100556.66;687069;28;4074;-63
2023/01/10 01:16:44;;;;;;;9.90;2.80;;;;;;;5.50;100.00;100547.97;688157;28;1576;-62
2023/01/10 01:17:05;;;;;;;8.95;2.60;;;;;;;5.44;100.00;100557.44;688071;28;1120;-64
2023/01/10 01:17:25;;;;;;;9.03;2.70;;;;;;;5.39;100.00;100559.09;687860;28;1212;-62
2023/01/10 01:17:46;;;;;;;7.43;2.50;;;;;;;5.35;100.00;100554.69;688627;28;1547;-64
2023/01/10 01:18:10;;;;;;;7.63;2.55;;;;;;;5.35;100.00;100559.88;684588;28;1465;-62
2023/01/10 01:18:31;;;;;;;8.77;2.63;;;;;;;5.35;100.00;100557.28;684547;28;1248;-63
2023/01/10 01:18:51;;;;;;;9.93;2.70;;;;;;;5.33;100.00;100561.59;685915;28;4558;-63
2023/01/10 01:19:12;;;;;;;9.53;2.67;;;;;;;5.28;100.00;100555.47;688064;28;1531;-64
2023/01/10 01:19:32;;;;;;;8.07;2.33;;;;;;;5.26;100.00;100559.72;682164;28;1243;-63
2023/01/10 01:19:52;;;;;;;7.03;2.43;;;;;;;5.23;100.00;100568.38;683706;28;1263;-64
2023/01/10 01:20:13;;;;;;;7.97;2.70;;;;;;;5.21;100.00;100558.81;683666;28;1277;-63
2023/01/10 01:20:33;;;;;;;7.85;2.70;;;;;;;5.21;100.00;100564.84;685531;28;1235;-64
2023/01/10 01:20:56;;;;;;;8.75;3.00;;;;;;;5.17;100.00;100567.38;686716;28;1333;-63
2023/01/10 01:21:17;;;;;;;8.75;2.58;;;;;;;5.15;100.00;100569.06;685875;28;1179;-64
2023/01/10 01:21:37;;;;;;;9.50;2.45;;;;;;;5.15;100.00;100574.25;686287;28;2185;-63
2023/01/10 01:21:57;;;;;;;8.17;2.50;;;;;;;5.18;100.00;100566.53;683904;28;4648;-63
2023/01/10 01:22:18;;;;;;;8.88;3.55;;;;;;;5.27;100.00;100564.97;685283;28;1271;-63
2023/01/10 01:22:39;;;;;;;8.82;2.90;;;;;;;5.25;100.00;100571.84;680256;29;1281;-64
2023/01/10 01:23:00;;;;;;;7.88;2.45;;;;;;;5.24;100.00;100570.09;681447;29;1244;-63
2023/01/10 01:23:20;;;;;;;8.37;2.40;;;;;;;5.25;100.00;100569.25;681406;29;1498;-64
2023/01/10 01:23:41;;;;;;;9.55;2.47;;;;;;;5.26;100.00;100571.00;681304;28;1268;-63
2023/01/10 01:24:01;;;;;;;7.97;2.30;;;;;;;5.26;100.00;100575.28;685178;28;1303;-63
2023/01/10 01:24:23;;;;;;;7.83;2.30;;;;;;;5.27;100.00;100575.34;685663;28;1307;-63
2023/01/10 01:24:43;;;;;;;8.85;2.47;;;;;;;5.26;100.00;100575.28;687795;28;4373;-63
2023/01/10 01:25:04;;;;;;;7.13;2.40;;;;;;;5.22;100.00;100570.91;684503;28;1366;-63
2023/01/10 01:25:25;;;;;;;7.60;2.83;;;;;;;5.18;100.00;100571.69;687091;28;1371;-63
2023/01/10 01:25:49;;;;;;;7.68;2.85;;;;;;;5.19;100.00;100576.94;687818;28;1971;-63
2023/01/10 01:26:09;;;;;;;7.97;2.78;;;;;;;5.19;100.00;100578.63;687794;28;1176;-63
2023/01/10 01:26:30;;;;;;;8.52;3.00;;;;;;;5.20;100.00;100573.47;688172;28;1100;-64
2023/01/10 01:26:50;;;;;;;8.70;2.57;;;;;;;5.19;100.00;100586.41;685772;28;1234;-63
2023/01/10 01:27:10;;;;;;;8.23;2.80;;;;;;;5.31;100.00;100576.25;684082;28;1236;-64
2023/01/10 01:27:31;;;;;;;7.53;2.50;;;;;;;5.36;100.00;100577.19;686415;28;1429;-62
2023/01/10 01:27:51;;;;;;;6.77;2.40;;;;;;;5.32;100.00;100580.59;683921;28;4774;-64
2023/01/10 01:28:12;;;;;;;9.83;2.63;;;;;;;5.25;100.00;100577.03;684563;28;1529;-63
2023/01/10 01:28:32;;;;;;;8.03;2.47;;;;;;;5.22;100.00;100582.16;686489;28;1228;-63
2023/01/10 01:28:53;;;;;;;9.20;2.47;;;;;;;5.26;100.00;100586.53;684694;28;1576;-63
2023/01/10 01:29:13;;;;;;;10.27;2.60;;;;;;;5.29;100.00;100580.53;684709;28;1461;-63
2023/01/10 01:29:34;;;;;;;9.87;2.57;;;;;;;5.29;100.00;100580.53;685936;28;1588;-63
2023/01/10 01:29:54;;;;;;;9.27;2.47;;;;;;;5.27;100.00;100587.41;685936;28;1310;-63
2023/01/10 01:30:15;;;;;;;9.00;2.40;;;;;;;5.23;100.00;100581.31;684680;28;1350;-63
2023/01/10 01:30:35;;;;;;;10.45;2.40;;;;;;;5.20;100.00;100585.56;685328;28;1247;-63
2023/01/10 01:30:55;;;;;;;10.97;2.60;;;;;;;5.20;100.00;100583.84;688957;28;4391;-63
2023/01/10 01:31:16;;;;;;;8.95;2.72;;;;;;;5.32;100.00;100578.00;687336;28;1381;-62
2023/01/10 01:31:37;;;;;;;9.03;2.57;;;;;;;5.35;100.00;100575.44;688341;28;1722;-64
2023/01/10 01:31:57;;;;;;;8.23;2.47;;;;;;;5.36;100.00;100579.78;686996;28;1140;-64
2023/01/10 01:32:17;;;;;;;8.63;2.60;;;;;;;5.44;100.00;100577.28;685481;28;1462;-62
2023/01/10 01:32:38;;;;;;;7.30;2.35;;;;;;;5.42;100.00;100573.81;680223;28;1247;-62
2023/01/10 01:32:58;;;;;;;8.23;2.57;;;;;;;5.38;100.00;100582.41;682367;28;1259;-63
2023/01/10 01:33:19;;;;;;;10.18;2.60;;;;;;;5.34;100.00;100586.66;685491;28;1594;-63
2023/01/10 01:33:40;;;;;;;8.07;2.60;;;;;;;5.31;100.00;100589.19;683770;28;4446;-62
2023/01/10 01:34:00;;;;;;;8.53;2.50;;;;;;;5.33;100.00;100589.22;684029;28;1709;-63
2023/01/10 01:34:20;;;;;;;10.18;2.72;;;;;;;5.30;100.00;100590.03;682022;28;1236;-63
2023/01/10 01:34:41;;;;;;;10.90;2.83;;;;;;;5.26;100.00;100590.84;684709;28;1288;-63
2023/01/10 01:35:01;;;;;;;8.10;2.43;;;;;;;5.21;100.00;100590.78;683368;28;1449;-63
2023/01/10 01:35:22;;;;;;;9.07;2.50;;;;;;;5.19;100.00;100586.41;684669;28;1557;-63
2023/01/10 01:35:44;;;;;;;9.27;2.40;;;;;;;5.18;100.00;100593.31;686667;28;1235;-63
2023/01/10 01:36:11;;;;;;;8.57;2.45;;;;;;;5.18;100.00;100598.50;682169;28;1409;-63
2023/01/10 01:36:31;;;;;;;7.63;2.50;;;;;;;5.26;100.00;100585.66;684654;28;1566;-64
2023/01/10 01:36:51;;;;;;;8.23;2.57;;;;;;;5.26;100.00;100596.03;684562;28;4479;-64
2023/01/10 01:37:12;;;;;;;8.70;2.50;;;;;;;5.25;100.00;100600.34;685419;28;1254;-62
2023/01/10 01:37:32;;;;;;;9.85;2.50;;;;;;;5.26;100.00;100596.91;685603;28;1275;-62
2023/01/10 01:37:53;;;;;;;10.75;2.55;;;;;;;5.23;100.00;100593.38;686099;28;1231;-63
2023/01/10 01:38:14;;;;;;;9.77;2.40;;;;;;;5.28;100.00;100596.94;687006;28;1332;-63
2023/01/10 01:38:35;;;;;;;10.82;2.60;;;;;;;5.31;100.00;100591.78;687489;28;1326;-62
2023/01/10 01:38:56;;;;;;;9.43;2.50;;;;;;;5.30;100.00;100590.03;687058;28;5303;-64
2023/01/10 01:39:16;;;;;;;6.77;2.30;;;;;;;5.25;100.00;100596.91;686225;28;1227;-63
2023/01/10 01:39:37;;;;;;;7.38;2.17;;;;;;;5.20;100.00;100596.81;688971;28;1065;-64
2023/01/10 01:39:57;;;;;;;7.07;2.27;;;;;;;5.21;100.00;100600.28;687169;28;4545;-63
2023/01/10 01:40:20;;;;;;;8.85;2.30;;;;;;;5.28;100.00;100599.53;687303;28;1223;-63
2023/01/10 01:40:41;;;;;;;8.68;2.47;;;;;;;5.34;100.00;100596.16;687759;28;1285;-64
2023/01/10 01:41:01;;;;;;;8.97;2.37;;;;;;;5.34;100.00;100596.16;687259;28;1196;-63
2023/01/10 01:42:01;;;;;;;9.60;2.80;;;;;;;5.31;100.00;100602.16;686911;28;1339;-63
2023/01/10 01:42:30;;;;;;;9.25;2.47;;;;;;;5.27;100.00;100602.97;687737;28;1094;-63
2023/01/10 01:42:54;;;;;;;12.48;2.78;;;;;;;5.24;100.00;100597.72;690908;28;4651;-63
2023/01/10 01:43:24;;;;;;;8.43;2.45;;;;;;;5.23;100.00;100599.47;687246;28;1116;-64
2023/01/10 01:44:01;;;;;;;10.48;2.88;;;;;;;5.25;100.00;100605.53;687715;28;1298;-63
2023/01/10 01:44:22;;;;;;;8.63;2.40;;;;;;;5.31;100.00;100602.16;687274;28;1305;-63
2023/01/10 01:44:42;;;;;;;9.27;2.40;;;;;;;5.30;100.00;100603.00;686325;28;1259;-62
2023/01/10 01:45:08;;;;;;;9.43;2.40;;;;;;;5.33;100.00;100610.84;685833;28;1457;-63
2023/01/10 01:45:39;;;;;;;7.53;2.65;;;;;;;5.29;100.00;100606.47;687302;28;1061;-63
2023/01/10 01:46:03;;;;;;;7.00;2.60;;;;;;;5.26;100.00;100614.16;686682;28;4796;-63
2023/01/10 01:46:23;;;;;;;8.50;2.45;;;;;;;5.33;100.00;100609.97;687615;28;1389;-64
2023/01/10 01:46:48;;;;;;;7.18;2.50;;;;;;;5.37;100.00;100614.34;687374;28;1371;-62